Terminal Aerodrome Forecast
Issued by NWS

Home | Current Version | Previous Version | Graphics & Text | Print | Product List | Glossary On
Versions: 1 2 3 4 5 6 7 8 9 10 11 12 13
000
FTUS43 KIWX 161720
TAFSBN
TAF
KSBN 161720Z 1618/1718 32013KT P6SM BKN030
     FM162100 32008KT P6SM SCT040
     FM170200 VRB03KT P6SM SCT090
     FM171500 18008KT P6SM BKN200=

USA.gov is the U.S. government's official web portal to all federal, state and local government web resources and services.